sensor_id;sensor_type;location;lat;lon;timestamp;temperature;humidity
26743;DHT22;14341;51.256;22.478;2023-03-12T00:00:53;-1.00;99.90
26743;DHT22;14341;51.256;22.478;2023-03-12T00:04:00;-1.70;99.90
26743;DHT22;14341;51.256;22.478;2023-03-12T00:07:04;-0.80;99.90
26743;DHT22;14341;51.256;22.478;2023-03-12T00:10:10;-1.60;99.90
26743;DHT22;14341;51.256;22.478;2023-03-12T00:13:14;-1.70;99.90
26743;DHT22;14341;51.256;22.478;2023-03-12T00:16:17;-1.50;99.90
26743;DHT22;14341;51.256;22.478;2023-03-12T00:19:22;-0.50;99.90
26743;DHT22;14341;51.256;22.478;2023-03-12T00:22:25;-0.80;99.90
26743;DHT22;14341;51.256;22.478;2023-03-12T00:25:29;-1.40;99.90
26743;DHT22;14341;51.256;22.478;2023-03-12T00:28:32;-0.70;99.90
26743;DHT22;14341;51.256;22.478;2023-03-12T00:31:36;-0.40;99.90
26743;DHT22;14341;51.256;22.478;2023-03-12T00:34:41;-0.70;99.90
26743;DHT22;14341;51.256;22.478;2023-03-12T00:37:45;-0.80;99.90
26743;DHT22;14341;51.256;22.478;2023-03-12T00:40:48;-0.50;99.90
26743;DHT22;14341;51.256;22.478;2023-03-12T00:43:51;-1.10;99.90
26743;DHT22;14341;51.256;22.478;2023-03-12T00:46:55;-1.30;99.90
26743;DHT22;14341;51.256;22.478;2023-03-12T00:49:59;-1.20;99.90
26743;DHT22;14341;51.256;22.478;2023-03-12T00:53:03;-1.00;99.90
26743;DHT22;14341;51.256;22.478;2023-03-12T00:56:07;-1.40;99.90
26743;DHT22;14341;51.256;22.478;2023-03-12T00:59:10;-1.00;99.90
26743;DHT22;14341;51.256;22.478;2023-03-12T01:02:14;-1.40;99.90
26743;DHT22;14341;51.256;22.478;2023-03-12T01:05:19;-1.20;99.90
26743;DHT22;14341;51.256;22.478;2023-03-12T01:08:22;-1.40;99.90
26743;DHT22;14341;51.256;22.478;2023-03-12T01:11:26;-1.30;99.90
26743;DHT22;14341;51.256;22.478;2023-03-12T01:14:30;-0.70;99.90
26743;DHT22;14341;51.256;22.478;2023-03-12T01:17:33;-0.40;99.90
26743;DHT22;14341;51.256;22.478;2023-03-12T01:20:38;-1.20;99.90
26743;DHT22;14341;51.256;22.478;2023-03-12T01:23:42;-0.70;99.90
26743;DHT22;14341;51.256;22.478;2023-03-12T01:26:46;0.30;99.90
26743;DHT22;14341;51.256;22.478;2023-03-12T01:29:49;-1.20;99.90
26743;DHT22;14341;51.256;22.478;2023-03-12T01:32:52;-0.40;99.90
26743;DHT22;14341;51.256;22.478;2023-03-12T01:35:58;-1.30;99.90
26743;DHT22;14341;51.256;22.478;2023-03-12T01:39:02;-0.70;99.90
26743;DHT22;14341;51.256;22.478;2023-03-12T01:42:06;-1.40;99.90
26743;DHT22;14341;51.256;22.478;2023-03-12T01:48:49;-1.50;99.90
26743;DHT22;14341;51.256;22.478;2023-03-12T01:51:58;-1.60;99.90
26743;DHT22;14341;51.256;22.478;2023-03-12T01:55:12;-1.00;99.90
26743;DHT22;14341;51.256;22.478;2023-03-12T01:58:19;-1.00;99.90
26743;DHT22;14341;51.256;22.478;2023-03-12T02:01:24;-1.60;99.90
26743;DHT22;14341;51.256;22.478;2023-03-12T02:04:30;-1.70;99.90
26743;DHT22;14341;51.256;22.478;2023-03-12T02:07:36;-1.60;99.90
26743;DHT22;14341;51.256;22.478;2023-03-12T02:10:39;-1.60;99.90
26743;DHT22;14341;51.256;22.478;2023-03-12T02:13:43;-1.10;99.90
26743;DHT22;14341;51.256;22.478;2023-03-12T02:16:46;-1.80;99.90
26743;DHT22;14341;51.256;22.478;2023-03-12T02:19:57;-1.70;99.90
26743;DHT22;14341;51.256;22.478;2023-03-12T02:23:06;-1.70;99.90
26743;DHT22;14341;51.256;22.478;2023-03-12T02:26:12;-1.70;99.90
26743;DHT22;14341;51.256;22.478;2023-03-12T02:29:17;-1.20;99.90
26743;DHT22;14341;51.256;22.478;2023-03-12T02:32:23;-1.70;99.90
26743;DHT22;14341;51.256;22.478;2023-03-12T02:35:28;-1.80;99.90
26743;DHT22;14341;51.256;22.478;2023-03-12T02:38:35;-1.80;99.90
26743;DHT22;14341;51.256;22.478;2023-03-12T02:41:42;-1.90;99.90
26743;DHT22;14341;51.256;22.478;2023-03-12T02:44:48;-1.90;99.90
26743;DHT22;14341;51.256;22.478;2023-03-12T02:47:52;-2.00;99.90
26743;DHT22;14341;51.256;22.478;2023-03-12T02:50:55;-1.90;99.90
26743;DHT22;14341;51.256;22.478;2023-03-12T02:53:58;-1.90;99.90
26743;DHT22;14341;51.256;22.478;2023-03-12T02:57:03;-1.90;99.90
26743;DHT22;14341;51.256;22.478;2023-03-12T03:03:25;-2.00;99.90
26743;DHT22;14341;51.256;22.478;2023-03-12T03:06:29;-1.90;99.90
26743;DHT22;14341;51.256;22.478;2023-03-12T03:09:33;-1.90;99.90
26743;DHT22;14341;51.256;22.478;2023-03-12T03:12:38;-1.90;99.90
26743;DHT22;14341;51.256;22.478;2023-03-12T03:15:42;-1.90;99.90
26743;DHT22;14341;51.256;22.478;2023-03-12T03:18:46;-2.00;99.90
26743;DHT22;14341;51.256;22.478;2023-03-12T03:21:49;-2.00;99.90
26743;DHT22;14341;51.256;22.478;2023-03-12T03:24:53;-2.00;99.90
26743;DHT22;14341;51.256;22.478;2023-03-12T03:27:58;-1.70;99.90
26743;DHT22;14341;51.256;22.478;2023-03-12T03:31:01;-1.90;99.90
26743;DHT22;14341;51.256;22.478;2023-03-12T03:34:09;-1.90;99.90
26743;DHT22;14341;51.256;22.478;2023-03-12T03:37:13;-1.90;99.90
26743;DHT22;14341;51.256;22.478;2023-03-12T03:40:17;-2.00;99.90
26743;DHT22;14341;51.256;22.478;2023-03-12T03:43:22;-1.30;99.90
26743;DHT22;14341;51.256;22.478;2023-03-12T03:46:25;-0.50;99.90
26743;DHT22;14341;51.256;22.478;2023-03-12T03:49:34;-2.00;99.90
26743;DHT22;14341;51.256;22.478;2023-03-12T03:52:38;-1.80;99.90
26743;DHT22;14341;51.256;22.478;2023-03-12T03:55:41;-0.50;99.90
26743;DHT22;14341;51.256;22.478;2023-03-12T03:58:46;-1.80;99.90
26743;DHT22;14341;51.256;22.478;2023-03-12T04:01:51;-1.70;99.90
26743;DHT22;14341;51.256;22.478;2023-03-12T04:04:56;-1.60;99.90
26743;DHT22;14341;51.256;22.478;2023-03-12T04:08:01;-1.60;99.90
26743;DHT22;14341;51.256;22.478;2023-03-12T04:11:10;-0.20;99.90
26743;DHT22;14341;51.256;22.478;2023-03-12T04:14:15;-1.50;99.90
26743;DHT22;14341;51.256;22.478;2023-03-12T04:17:19;-1.50;99.90
26743;DHT22;14341;51.256;22.478;2023-03-12T04:20:23;-1.50;99.90
26743;DHT22;14341;51.256;22.478;2023-03-12T04:23:26;-1.40;99.90
26743;DHT22;14341;51.256;22.478;2023-03-12T04:26:30;-1.50;99.90
26743;DHT22;14341;51.256;22.478;2023-03-12T04:29:35;-1.40;99.90
26743;DHT22;14341;51.256;22.478;2023-03-12T04:32:40;-1.00;99.90
26743;DHT22;14341;51.256;22.478;2023-03-12T04:35:49;-1.00;99.90
26743;DHT22;14341;51.256;22.478;2023-03-12T04:38:55;-1.40;99.90
26743;DHT22;14341;51.256;22.478;2023-03-12T04:42:03;-1.40;99.90
26743;DHT22;14341;51.256;22.478;2023-03-12T04:45:09;-1.40;99.90
26743;DHT22;14341;51.256;22.478;2023-03-12T04:48:18;-1.40;99.90
26743;DHT22;14341;51.256;22.478;2023-03-12T04:51:22;-1.40;99.90
26743;DHT22;14341;51.256;22.478;2023-03-12T04:54:26;-1.10;99.90
26743;DHT22;14341;51.256;22.478;2023-03-12T04:57:29;-1.40;99.90
26743;DHT22;14341;51.256;22.478;2023-03-12T05:00:34;-1.40;99.90
26743;DHT22;14341;51.256;22.478;2023-03-12T05:03:38;-1.40;99.90
26743;DHT22;14341;51.256;22.478;2023-03-12T05:06:41;-1.40;99.90
26743;DHT22;14341;51.256;22.478;2023-03-12T05:09:45;-0.20;99.90
26743;DHT22;14341;51.256;22.478;2023-03-12T05:12:48;-1.10;99.90
26743;DHT22;14341;51.256;22.478;2023-03-12T05:15:54;-1.30;99.90
26743;DHT22;14341;51.256;22.478;2023-03-12T05:18:58;-1.30;99.90
26743;DHT22;14341;51.256;22.478;2023-03-12T05:22:04;-1.20;99.90
26743;DHT22;14341;51.256;22.478;2023-03-12T05:25:09;-1.20;99.90
26743;DHT22;14341;51.256;22.478;2023-03-12T05:28:12;-1.20;99.90
26743;DHT22;14341;51.256;22.478;2023-03-12T05:31:18;-1.10;99.90
26743;DHT22;14341;51.256;22.478;2023-03-12T05:34:22;-1.10;99.90
26743;DHT22;14341;51.256;22.478;2023-03-12T05:37:26;-1.10;99.90
26743;DHT22;14341;51.256;22.478;2023-03-12T05:40:30;-1.10;99.90
26743;DHT22;14341;51.256;22.478;2023-03-12T05:43:33;-1.00;99.90
26743;DHT22;14341;51.256;22.478;2023-03-12T05:46:39;-1.00;99.90
26743;DHT22;14341;51.256;22.478;2023-03-12T05:49:42;-0.90;99.90
26743;DHT22;14341;51.256;22.478;2023-03-12T05:52:46;-0.80;99.90
26743;DHT22;14341;51.256;22.478;2023-03-12T05:55:49;-0.70;99.90
26743;DHT22;14341;51.256;22.478;2023-03-12T05:58:53;-0.70;99.90
26743;DHT22;14341;51.256;22.478;2023-03-12T06:01:58;-0.70;99.90
26743;DHT22;14341;51.256;22.478;2023-03-12T06:05:02;-0.70;99.90
26743;DHT22;14341;51.256;22.478;2023-03-12T06:08:05;-0.70;99.90
26743;DHT22;14341;51.256;22.478;2023-03-12T06:11:08;-0.70;99.90
26743;DHT22;14341;51.256;22.478;2023-03-12T06:14:12;-0.70;99.90
26743;DHT22;14341;51.256;22.478;2023-03-12T06:17:17;-0.50;99.90
26743;DHT22;14341;51.256;22.478;2023-03-12T06:20:21;0.40;99.90
26743;DHT22;14341;51.256;22.478;2023-03-12T06:23:25;-0.60;99.90
26743;DHT22;14341;51.256;22.478;2023-03-12T06:26:29;-0.60;99.90
26743;DHT22;14341;51.256;22.478;2023-03-12T06:29:32;-0.50;99.90
26743;DHT22;14341;51.256;22.478;2023-03-12T06:32:37;-0.30;99.90
26743;DHT22;14341;51.256;22.478;2023-03-12T06:35:40;-0.30;99.90
26743;DHT22;14341;51.256;22.478;2023-03-12T06:38:44;-0.60;99.90
26743;DHT22;14341;51.256;22.478;2023-03-12T06:41:47;-0.50;99.90
26743;DHT22;14341;51.256;22.478;2023-03-12T06:44:50;-0.50;99.90
26743;DHT22;14341;51.256;22.478;2023-03-12T06:47:55;-0.50;99.90
26743;DHT22;14341;51.256;22.478;2023-03-12T06:50:59;-0.30;99.90
26743;DHT22;14341;51.256;22.478;2023-03-12T06:54:03;-0.20;99.90
26743;DHT22;14341;51.256;22.478;2023-03-12T06:57:06;-0.40;99.90
26743;DHT22;14341;51.256;22.478;2023-03-12T07:00:12;0.10;99.90
26743;DHT22;14341;51.256;22.478;2023-03-12T07:03:17;-0.40;99.90
26743;DHT22;14341;51.256;22.478;2023-03-12T07:06:22;-0.30;99.90
26743;DHT22;14341;51.256;22.478;2023-03-12T07:09:25;-0.30;99.90
26743;DHT22;14341;51.256;22.478;2023-03-12T07:12:29;-0.20;99.90
26743;DHT22;14341;51.256;22.478;2023-03-12T07:15:32;0.00;99.90
26743;DHT22;14341;51.256;22.478;2023-03-12T07:18:37;-0.10;99.90
26743;DHT22;14341;51.256;22.478;2023-03-12T07:21:40;-0.10;99.90
26743;DHT22;14341;51.256;22.478;2023-03-12T07:24:43;-0.10;99.90
26743;DHT22;14341;51.256;22.478;2023-03-12T07:27:47;-0.10;99.90
26743;DHT22;14341;51.256;22.478;2023-03-12T07:30:50;-0.10;99.90
26743;DHT22;14341;51.256;22.478;2023-03-12T07:33:55;-0.10;99.90
26743;DHT22;14341;51.256;22.478;2023-03-12T07:36:59;0.00;99.90
26743;DHT22;14341;51.256;22.478;2023-03-12T07:40:03;0.10;99.90
26743;DHT22;14341;51.256;22.478;2023-03-12T07:43:09;0.10;99.90
26743;DHT22;14341;51.256;22.478;2023-03-12T07:46:16;0.00;99.90
26743;DHT22;14341;51.256;22.478;2023-03-12T07:49:20;0.10;99.90
26743;DHT22;14341;51.256;22.478;2023-03-12T07:52:24;0.10;99.90
26743;DHT22;14341;51.256;22.478;2023-03-12T07:55:28;0.10;99.90
26743;DHT22;14341;51.256;22.478;2023-03-12T07:58:31;0.20;99.90
26743;DHT22;14341;51.256;22.478;2023-03-12T08:01:37;0.20;99.90
26743;DHT22;14341;51.256;22.478;2023-03-12T08:04:42;0.30;99.90
26743;DHT22;14341;51.256;22.478;2023-03-12T08:07:46;0.50;99.90
26743;DHT22;14341;51.256;22.478;2023-03-12T08:10:52;0.50;99.90
26743;DHT22;14341;51.256;22.478;2023-03-12T08:13:55;0.60;99.90
26743;DHT22;14341;51.256;22.478;2023-03-12T08:16:59;0.60;99.90
26743;DHT22;14341;51.256;22.478;2023-03-12T08:20:05;0.70;99.90
26743;DHT22;14341;51.256;22.478;2023-03-12T08:23:11;0.70;99.90
26743;DHT22;14341;51.256;22.478;2023-03-12T08:26:15;0.70;99.90
26743;DHT22;14341;51.256;22.478;2023-03-12T08:29:18;0.70;99.90
26743;DHT22;14341;51.256;22.478;2023-03-12T08:32:22;0.70;99.90
26743;DHT22;14341;51.256;22.478;2023-03-12T08:35:32;0.80;99.90
26743;DHT22;14341;51.256;22.478;2023-03-12T08:38:36;0.90;99.90
26743;DHT22;14341;51.256;22.478;2023-03-12T08:41:43;1.00;99.90
26743;DHT22;14341;51.256;22.478;2023-03-12T08:44:48;1.00;99.90
26743;DHT22;14341;51.256;22.478;2023-03-12T08:47:51;1.10;99.90
26743;DHT22;14341;51.256;22.478;2023-03-12T08:51:01;1.10;99.90
26743;DHT22;14341;51.256;22.478;2023-03-12T08:54:07;0.90;99.90
26743;DHT22;14341;51.256;22.478;2023-03-12T08:57:11;0.80;99.90
26743;DHT22;14341;51.256;22.478;2023-03-12T09:00:15;0.60;99.90
26743;DHT22;14341;51.256;22.478;2023-03-12T09:03:19;0.70;99.90
26743;DHT22;14341;51.256;22.478;2023-03-12T09:06:26;0.60;99.90
26743;DHT22;14341;51.256;22.478;2023-03-12T09:09:29;0.60;99.90
26743;DHT22;14341;51.256;22.478;2023-03-12T09:12:35;0.70;99.90
26743;DHT22;14341;51.256;22.478;2023-03-12T09:15:38;0.80;99.90
26743;DHT22;14341;51.256;22.478;2023-03-12T09:18:42;0.80;99.90
26743;DHT22;14341;51.256;22.478;2023-03-12T09:21:49;0.80;99.90
26743;DHT22;14341;51.256;22.478;2023-03-12T09:24:55;0.80;99.90
26743;DHT22;14341;51.256;22.478;2023-03-12T09:27:59;0.70;99.90
26743;DHT22;14341;51.256;22.478;2023-03-12T09:31:04;0.70;99.90
26743;DHT22;14341;51.256;22.478;2023-03-12T09:34:08;0.80;99.90
26743;DHT22;14341;51.256;22.478;2023-03-12T09:37:13;0.90;99.90
26743;DHT22;14341;51.256;22.478;2023-03-12T09:40:19;1.20;99.90
26743;DHT22;14341;51.256;22.478;2023-03-12T09:43:26;1.20;99.90
26743;DHT22;14341;51.256;22.478;2023-03-12T09:46:36;1.30;99.90
26743;DHT22;14341;51.256;22.478;2023-03-12T09:49:43;1.00;99.90
26743;DHT22;14341;51.256;22.478;2023-03-12T09:52:52;0.80;99.90
26743;DHT22;14341;51.256;22.478;2023-03-12T09:56:03;0.80;99.90
26743;DHT22;14341;51.256;22.478;2023-03-12T09:59:13;0.80;99.90
26743;DHT22;14341;51.256;22.478;2023-03-12T10:02:41;0.80;99.90
26743;DHT22;14341;51.256;22.478;2023-03-12T10:05:49;0.90;99.90
26743;DHT22;14341;51.256;22.478;2023-03-12T10:09:22;1.20;99.90
26743;DHT22;14341;51.256;22.478;2023-03-12T10:12:44;1.50;99.90
26743;DHT22;14341;51.256;22.478;2023-03-12T10:16:15;1.40;99.90
26743;DHT22;14341;51.256;22.478;2023-03-12T10:19:39;1.50;99.90
26743;DHT22;14341;51.256;22.478;2023-03-12T10:22:56;1.60;99.90
26743;DHT22;14341;51.256;22.478;2023-03-12T10:26:12;1.80;99.90
26743;DHT22;14341;51.256;22.478;2023-03-12T10:29:25;2.00;99.90
26743;DHT22;14341;51.256;22.478;2023-03-12T10:32:45;2.10;99.90
26743;DHT22;14341;51.256;22.478;2023-03-12T10:35:54;1.50;99.90
26743;DHT22;14341;51.256;22.478;2023-03-12T10:39:13;1.30;99.90
26743;DHT22;14341;51.256;22.478;2023-03-12T10:42:24;1.20;99.90
26743;DHT22;14341;51.256;22.478;2023-03-12T10:45:45;1.10;99.90
26743;DHT22;14341;51.256;22.478;2023-03-12T10:49:22;1.20;99.90
26743;DHT22;14341;51.256;22.478;2023-03-12T10:52:30;1.40;99.90
26743;DHT22;14341;51.256;22.478;2023-03-12T10:56:02;1.40;99.90
26743;DHT22;14341;51.256;22.478;2023-03-12T10:59:27;1.50;99.90
26743;DHT22;14341;51.256;22.478;2023-03-12T11:02:41;1.50;93.90
26743;DHT22;14341;51.256;22.478;2023-03-12T11:05:54;1.60;96.40
26743;DHT22;14341;51.256;22.478;2023-03-12T11:09:18;1.50;97.60
26743;DHT22;14341;51.256;22.478;2023-03-12T11:12:33;1.70;99.90
26743;DHT22;14341;51.256;22.478;2023-03-12T11:15:50;2.30;99.90
26743;DHT22;14341;51.256;22.478;2023-03-12T11:19:24;2.60;89.60
26743;DHT22;14341;51.256;22.478;2023-03-12T11:22:33;2.50;51.00
26743;DHT22;14341;51.256;22.478;2023-03-12T11:25:53;3.00;23.50
26743;DHT22;14341;51.256;22.478;2023-03-12T11:29:05;3.20;1.00
26743;DHT22;14341;51.256;22.478;2023-03-12T11:32:22;3.10;1.00
26743;DHT22;14341;51.256;22.478;2023-03-12T11:35:44;3.20;1.00
26743;DHT22;14341;51.256;22.478;2023-03-12T11:39:05;4.00;1.00
26743;DHT22;14341;51.256;22.478;2023-03-12T11:42:24;3.80;1.00
26743;DHT22;14341;51.256;22.478;2023-03-12T11:45:45;4.10;1.00
26743;DHT22;14341;51.256;22.478;2023-03-12T11:49:08;4.20;1.00
26743;DHT22;14341;51.256;22.478;2023-03-12T11:52:23;4.60;1.00
26743;DHT22;14341;51.256;22.478;2023-03-12T11:55:47;4.70;1.00
26743;DHT22;14341;51.256;22.478;2023-03-12T11:59:26;4.90;1.00
26743;DHT22;14341;51.256;22.478;2023-03-12T12:02:57;4.80;1.00
26743;DHT22;14341;51.256;22.478;2023-03-12T12:06:22;4.60;1.00
26743;DHT22;14341;51.256;22.478;2023-03-12T12:09:45;5.20;1.00
26743;DHT22;14341;51.256;22.478;2023-03-12T12:13:02;5.90;1.00
26743;DHT22;14341;51.256;22.478;2023-03-12T12:16:22;5.60;99.90
26743;DHT22;14341;51.256;22.478;2023-03-12T12:19:41;6.10;99.90
26743;DHT22;14341;51.256;22.478;2023-03-12T12:23:07;5.70;99.90
26743;DHT22;14341;51.256;22.478;2023-03-12T12:26:23;5.90;99.90
26743;DHT22;14341;51.256;22.478;2023-03-12T12:29:54;6.10;99.90
26743;DHT22;14341;51.256;22.478;2023-03-12T12:33:15;6.00;99.90
26743;DHT22;14341;51.256;22.478;2023-03-12T12:36:26;5.60;99.90
26743;DHT22;14341;51.256;22.478;2023-03-12T12:39:44;5.60;99.90
26743;DHT22;14341;51.256;22.478;2023-03-12T12:43:02;5.40;99.90
26743;DHT22;14341;51.256;22.478;2023-03-12T12:46:31;5.00;99.90
26743;DHT22;14341;51.256;22.478;2023-03-12T12:49:49;5.00;99.90
26743;DHT22;14341;51.256;22.478;2023-03-12T12:52:58;4.70;99.90
26743;DHT22;14341;51.256;22.478;2023-03-12T12:56:20;3.80;99.90
26743;DHT22;14341;51.256;22.478;2023-03-12T12:59:36;3.70;99.90
26743;DHT22;14341;51.256;22.478;2023-03-12T13:02:48;4.50;99.90
26743;DHT22;14341;51.256;22.478;2023-03-12T13:06:04;5.00;1.00
26743;DHT22;14341;51.256;22.478;2023-03-12T13:09:14;5.60;99.90
26743;DHT22;14341;51.256;22.478;2023-03-12T13:12:34;6.30;99.90
26743;DHT22;14341;51.256;22.478;2023-03-12T13:16:16;5.50;99.90
26743;DHT22;14341;51.256;22.478;2023-03-12T13:19:48;5.00;99.90
26743;DHT22;14341;51.256;22.478;2023-03-12T13:23:31;4.70;99.90
26743;DHT22;14341;51.256;22.478;2023-03-12T13:27:00;5.80;99.90
26743;DHT22;14341;51.256;22.478;2023-03-12T13:30:53;6.30;99.90
26743;DHT22;14341;51.256;22.478;2023-03-12T13:38:02;4.40;99.90
26743;DHT22;14341;51.256;22.478;2023-03-12T13:41:11;3.90;1.00
26743;DHT22;14341;51.256;22.478;2023-03-12T13:45:21;3.50;1.00
26743;DHT22;14341;51.256;22.478;2023-03-12T13:48:29;3.90;1.00
26743;DHT22;14341;51.256;22.478;2023-03-12T13:51:54;4.00;1.00
26743;DHT22;14341;51.256;22.478;2023-03-12T13:55:23;4.20;1.00
26743;DHT22;14341;51.256;22.478;2023-03-12T13:58:53;4.20;1.00
26743;DHT22;14341;51.256;22.478;2023-03-12T14:02:35;4.80;1.00
26743;DHT22;14341;51.256;22.478;2023-03-12T14:05:57;5.20;99.90
26743;DHT22;14341;51.256;22.478;2023-03-12T14:09:17;5.20;99.90
26743;DHT22;14341;51.256;22.478;2023-03-12T14:12:43;5.50;1.00
26743;DHT22;14341;51.256;22.478;2023-03-12T14:16:12;6.00;99.90
26743;DHT22;14341;51.256;22.478;2023-03-12T14:19:24;6.00;99.90
26743;DHT22;14341;51.256;22.478;2023-03-12T14:22:50;5.80;99.90
26743;DHT22;14341;51.256;22.478;2023-03-12T14:26:02;5.50;99.90
26743;DHT22;14341;51.256;22.478;2023-03-12T14:29:22;5.30;99.90
26743;DHT22;14341;51.256;22.478;2023-03-12T14:32:37;4.90;99.90
26743;DHT22;14341;51.256;22.478;2023-03-12T14:35:55;5.20;99.90
26743;DHT22;14341;51.256;22.478;2023-03-12T14:39:20;5.70;99.90
26743;DHT22;14341;51.256;22.478;2023-03-12T14:42:34;5.30;99.90
26743;DHT22;14341;51.256;22.478;2023-03-12T14:45:43;5.20;99.90
26743;DHT22;14341;51.256;22.478;2023-03-12T14:48:49;5.40;99.90
26743;DHT22;14341;51.256;22.478;2023-03-12T14:52:04;5.20;99.90
26743;DHT22;14341;51.256;22.478;2023-03-12T14:55:20;5.20;99.90
26743;DHT22;14341;51.256;22.478;2023-03-12T14:58:27;5.30;99.90
26743;DHT22;14341;51.256;22.478;2023-03-12T15:01:33;5.20;99.90
26743;DHT22;14341;51.256;22.478;2023-03-12T15:05:04;5.20;99.90
26743;DHT22;14341;51.256;22.478;2023-03-12T15:08:14;5.30;99.90
26743;DHT22;14341;51.256;22.478;2023-03-12T15:11:38;5.40;99.90
26743;DHT22;14341;51.256;22.478;2023-03-12T15:14:45;5.10;99.90
26743;DHT22;14341;51.256;22.478;2023-03-12T15:17:59;4.90;99.90
26743;DHT22;14341;51.256;22.478;2023-03-12T15:21:04;4.60;99.90
26743;DHT22;14341;51.256;22.478;2023-03-12T15:24:15;4.70;99.90
26743;DHT22;14341;51.256;22.478;2023-03-12T15:31:11;4.30;99.90
26743;DHT22;14341;51.256;22.478;2023-03-12T15:34:50;4.20;99.90
26743;DHT22;14341;51.256;22.478;2023-03-12T15:38:12;3.90;1.00
26743;DHT22;14341;51.256;22.478;2023-03-12T15:41:35;3.80;1.00
26743;DHT22;14341;51.256;22.478;2023-03-12T15:44:56;3.80;1.00
26743;DHT22;14341;51.256;22.478;2023-03-12T15:48:04;3.70;1.00
26743;DHT22;14341;51.256;22.478;2023-03-12T15:51:31;3.50;1.00
26743;DHT22;14341;51.256;22.478;2023-03-12T15:54:40;3.40;1.00
26743;DHT22;14341;51.256;22.478;2023-03-12T15:57:54;3.20;1.00
26743;DHT22;14341;51.256;22.478;2023-03-12T16:01:13;3.10;1.00
26743;DHT22;14341;51.256;22.478;2023-03-12T16:04:40;3.00;1.00
26743;DHT22;14341;51.256;22.478;2023-03-12T16:07:45;2.90;1.00
26743;DHT22;14341;51.256;22.478;2023-03-12T16:10:58;2.90;1.00
26743;DHT22;14341;51.256;22.478;2023-03-12T16:14:05;2.70;1.00
26743;DHT22;14341;51.256;22.478;2023-03-12T16:17:16;2.60;1.00
26743;DHT22;14341;51.256;22.478;2023-03-12T16:20:33;2.60;1.00
26743;DHT22;14341;51.256;22.478;2023-03-12T16:23:37;2.50;1.00
26743;DHT22;14341;51.256;22.478;2023-03-12T16:26:46;2.40;1.00
26743;DHT22;14341;51.256;22.478;2023-03-12T16:29:54;2.40;1.00
26743;DHT22;14341;51.256;22.478;2023-03-12T16:33:13;2.40;1.00
26743;DHT22;14341;51.256;22.478;2023-03-12T16:36:18;2.40;1.00
26743;DHT22;14341;51.256;22.478;2023-03-12T16:39:24;2.40;1.00
26743;DHT22;14341;51.256;22.478;2023-03-12T16:42:34;2.30;1.00
26743;DHT22;14341;51.256;22.478;2023-03-12T16:45:46;2.30;1.00
26743;DHT22;14341;51.256;22.478;2023-03-12T16:48:52;2.30;1.00
26743;DHT22;14341;51.256;22.478;2023-03-12T16:51:56;2.30;1.00
26743;DHT22;14341;51.256;22.478;2023-03-12T16:55:11;2.20;1.00
26743;DHT22;14341;51.256;22.478;2023-03-12T16:58:22;2.20;1.00
26743;DHT22;14341;51.256;22.478;2023-03-12T17:02:18;2.20;1.00
26743;DHT22;14341;51.256;22.478;2023-03-12T17:05:01;2.10;1.00
26743;DHT22;14341;51.256;22.478;2023-03-12T17:08:07;2.10;1.00
26743;DHT22;14341;51.256;22.478;2023-03-12T17:11:16;2.10;10.50
26743;DHT22;14341;51.256;22.478;2023-03-12T17:15:30;2.00;13.60
26743;DHT22;14341;51.256;22.478;2023-03-12T17:18:35;2.00;20.50
26743;DHT22;14341;51.256;22.478;2023-03-12T17:21:43;1.90;26.20
26743;DHT22;14341;51.256;22.478;2023-03-12T17:24:48;1.90;29.80
26743;DHT22;14341;51.256;22.478;2023-03-12T17:27:53;1.90;31.90
26743;DHT22;14341;51.256;22.478;2023-03-12T17:30:59;1.90;35.10
26743;DHT22;14341;51.256;22.478;2023-03-12T17:34:06;1.90;36.80
26743;DHT22;14341;51.256;22.478;2023-03-12T17:37:12;1.80;42.60
26743;DHT22;14341;51.256;22.478;2023-03-12T17:40:20;1.80;47.80
26743;DHT22;14341;51.256;22.478;2023-03-12T17:43:31;1.80;47.10
26743;DHT22;14341;51.256;22.478;2023-03-12T17:46:41;1.70;50.00
26743;DHT22;14341;51.256;22.478;2023-03-12T17:49:59;1.70;57.20
26743;DHT22;14341;51.256;22.478;2023-03-12T17:53:07;1.70;56.50
26743;DHT22;14341;51.256;22.478;2023-03-12T17:56:11;1.70;55.30
26743;DHT22;14341;51.256;22.478;2023-03-12T17:59:17;1.70;56.40
26743;DHT22;14341;51.256;22.478;2023-03-12T18:02:21;1.60;59.50
26743;DHT22;14341;51.256;22.478;2023-03-12T18:05:28;1.60;61.50
26743;DHT22;14341;51.256;22.478;2023-03-12T18:08:33;1.60;60.60
26743;DHT22;14341;51.256;22.478;2023-03-12T18:11:39;1.50;69.80
26743;DHT22;14341;51.256;22.478;2023-03-12T18:14:42;1.50;69.80
26743;DHT22;14341;51.256;22.478;2023-03-12T18:17:46;1.50;77.70
26743;DHT22;14341;51.256;22.478;2023-03-12T18:20:53;1.40;77.50
26743;DHT22;14341;51.256;22.478;2023-03-12T18:23:59;1.50;77.20
26743;DHT22;14341;51.256;22.478;2023-03-12T18:27:14;1.60;73.20
26743;DHT22;14341;51.256;22.478;2023-03-12T18:30:18;1.70;71.50
26743;DHT22;14341;51.256;22.478;2023-03-12T18:33:22;1.70;66.90
26743;DHT22;14341;51.256;22.478;2023-03-12T18:36:25;1.80;60.00
26743;DHT22;14341;51.256;22.478;2023-03-12T18:39:32;1.80;58.10
26743;DHT22;14341;51.256;22.478;2023-03-12T18:42:38;1.80;56.00
26743;DHT22;14341;51.256;22.478;2023-03-12T18:45:49;1.80;55.60
26743;DHT22;14341;51.256;22.478;2023-03-12T18:48:53;1.80;55.80
26743;DHT22;14341;51.256;22.478;2023-03-12T18:51:58;1.80;49.60
26743;DHT22;14341;51.256;22.478;2023-03-12T18:55:04;1.80;48.40
26743;DHT22;14341;51.256;22.478;2023-03-12T18:58:08;1.90;40.30
26743;DHT22;14341;51.256;22.478;2023-03-12T19:01:12;2.00;35.10
26743;DHT22;14341;51.256;22.478;2023-03-12T19:04:17;1.90;41.40
26743;DHT22;14341;51.256;22.478;2023-03-12T19:07:21;1.90;38.00
26743;DHT22;14341;51.256;22.478;2023-03-12T19:10:27;1.90;37.60
26743;DHT22;14341;51.256;22.478;2023-03-12T19:13:30;1.90;32.70
26743;DHT22;14341;51.256;22.478;2023-03-12T19:16:36;1.90;35.30
26743;DHT22;14341;51.256;22.478;2023-03-12T19:19:39;1.80;38.60
26743;DHT22;14341;51.256;22.478;2023-03-12T19:22:43;1.90;38.40
26743;DHT22;14341;51.256;22.478;2023-03-12T19:25:49;1.80;34.60
26743;DHT22;14341;51.256;22.478;2023-03-12T19:28:52;1.80;32.40
26743;DHT22;14341;51.256;22.478;2023-03-12T19:31:56;1.80;33.80
26743;DHT22;14341;51.256;22.478;2023-03-12T19:34:59;1.80;32.40
26743;DHT22;14341;51.256;22.478;2023-03-12T19:38:03;1.80;37.80
26743;DHT22;14341;51.256;22.478;2023-03-12T19:41:10;1.80;33.60
26743;DHT22;14341;51.256;22.478;2023-03-12T19:44:13;1.80;35.50
26743;DHT22;14341;51.256;22.478;2023-03-12T19:47:17;1.70;38.60
26743;DHT22;14341;51.256;22.478;2023-03-12T19:50:23;1.60;41.80
26743;DHT22;14341;51.256;22.478;2023-03-12T19:53:26;1.50;50.90
26743;DHT22;14341;51.256;22.478;2023-03-12T19:56:32;1.40;56.90
26743;DHT22;14341;51.256;22.478;2023-03-12T19:59:37;1.30;65.90
26743;DHT22;14341;51.256;22.478;2023-03-12T20:02:41;1.20;71.50
26743;DHT22;14341;51.256;22.478;2023-03-12T20:05:49;1.20;78.90
26743;DHT22;14341;51.256;22.478;2023-03-12T20:08:53;1.20;80.00